JM-0015 weather

Moneague Training Camp Airfield
Moneague, Saint Ann, Jamaica

Public forecast

Using degrees Celsius for public forecast. Weather courtesy of forecast.io.

METAR (pilot weather report)

Closest report is Norman Manley International Airport, 27.6 nm (51.1 km) SE. Retrieved 2019/05/20 08:00 UTC (36 minutes ago):

MKJP 200800Z 01005KT 9999 FEW022 27/20 Q1012

TAF (pilot weather forecast)

Closest forecast is Norman Manley International Airport, 27.6 nm (51.1 km) SE. Retrieved 2019/05/20 06:21 UTC (2 hours ago):

TAF MKJP 200515Z 2006/2106 36004KT 9999 FEW022 BECMG 2014/2016 17018KT TEMPO 2018/2024 SCT020 FEW022CB SCT036 BECMG 2103/2105 36004KT